sensor_id;sensor_type;location;lat;lon;timestamp;temperature;humidity
78779;DHT22;68121;52.404;5.318;2024-03-02T00:00:22;8.90;64.40
78779;DHT22;68121;52.404;5.318;2024-03-02T00:02:49;8.80;64.40
78779;DHT22;68121;52.404;5.318;2024-03-02T00:05:17;8.90;64.50
78779;DHT22;68121;52.404;5.318;2024-03-02T00:07:45;8.90;64.50
78779;DHT22;68121;52.404;5.318;2024-03-02T00:10:16;8.90;64.60
78779;DHT22;68121;52.404;5.318;2024-03-02T00:12:42;8.90;64.50
78779;DHT22;68121;52.404;5.318;2024-03-02T00:18:04;9.00;64.50
78779;DHT22;68121;52.404;5.318;2024-03-02T00:20:30;9.00;64.60
78779;DHT22;68121;52.404;5.318;2024-03-02T00:23:04;9.00;64.60
78779;DHT22;68121;52.404;5.318;2024-03-02T00:25:52;9.00;64.70
78779;DHT22;68121;52.404;5.318;2024-03-02T00:28:27;9.00;64.70
78779;DHT22;68121;52.404;5.318;2024-03-02T00:30:59;9.00;64.80
78779;DHT22;68121;52.404;5.318;2024-03-02T00:33:34;9.00;64.80
78779;DHT22;68121;52.404;5.318;2024-03-02T00:36:02;9.00;64.80
78779;DHT22;68121;52.404;5.318;2024-03-02T00:38:30;9.00;64.90
78779;DHT22;68121;52.404;5.318;2024-03-02T00:40:59;9.00;65.00
78779;DHT22;68121;52.404;5.318;2024-03-02T00:43:46;9.00;65.00
78779;DHT22;68121;52.404;5.318;2024-03-02T00:46:15;9.00;65.10
78779;DHT22;68121;52.404;5.318;2024-03-02T00:48:55;9.00;65.00
78779;DHT22;68121;52.404;5.318;2024-03-02T00:51:22;9.20;65.00
78779;DHT22;68121;52.404;5.318;2024-03-02T00:53:50;9.20;65.00
78779;DHT22;68121;52.404;5.318;2024-03-02T00:56:16;9.20;65.00
78779;DHT22;68121;52.404;5.318;2024-03-02T00:58:42;9.20;65.00
78779;DHT22;68121;52.404;5.318;2024-03-02T01:01:09;9.20;65.10
78779;DHT22;68121;52.404;5.318;2024-03-02T01:03:35;9.10;65.20
78779;DHT22;68121;52.404;5.318;2024-03-02T01:06:03;9.00;65.40
78779;DHT22;68121;52.404;5.318;2024-03-02T01:08:29;9.00;65.60
78779;DHT22;68121;52.404;5.318;2024-03-02T01:10:55;9.00;65.70
78779;DHT22;68121;52.404;5.318;2024-03-02T01:13:22;8.90;65.90
78779;DHT22;68121;52.404;5.318;2024-03-02T01:15:49;8.80;66.20
78779;DHT22;68121;52.404;5.318;2024-03-02T01:18:15;8.70;66.40
78779;DHT22;68121;52.404;5.318;2024-03-02T01:20:41;8.60;66.70
78779;DHT22;68121;52.404;5.318;2024-03-02T01:23:07;8.50;66.90
78779;DHT22;68121;52.404;5.318;2024-03-02T01:25:34;8.40;67.00
78779;DHT22;68121;52.404;5.318;2024-03-02T01:28:00;8.40;67.20
78779;DHT22;68121;52.404;5.318;2024-03-02T01:30:26;8.30;67.30
78779;DHT22;68121;52.404;5.318;2024-03-02T01:32:52;8.20;67.60
78779;DHT22;68121;52.404;5.318;2024-03-02T01:35:18;8.10;67.60
78779;DHT22;68121;52.404;5.318;2024-03-02T01:37:44;8.10;67.80
78779;DHT22;68121;52.404;5.318;2024-03-02T01:40:10;8.00;67.90
78779;DHT22;68121;52.404;5.318;2024-03-02T01:42:37;8.00;68.10
78779;DHT22;68121;52.404;5.318;2024-03-02T01:45:07;8.00;68.20
78779;DHT22;68121;52.404;5.318;2024-03-02T01:47:34;7.90;68.30
78779;DHT22;68121;52.404;5.318;2024-03-02T01:50:01;7.90;68.30
78779;DHT22;68121;52.404;5.318;2024-03-02T01:52:27;7.80;68.60
78779;DHT22;68121;52.404;5.318;2024-03-02T01:54:53;7.80;68.60
78779;DHT22;68121;52.404;5.318;2024-03-02T01:57:19;7.80;68.70
78779;DHT22;68121;52.404;5.318;2024-03-02T01:59:46;7.80;68.80
78779;DHT22;68121;52.404;5.318;2024-03-02T02:02:16;7.70;68.90
78779;DHT22;68121;52.404;5.318;2024-03-02T02:04:43;7.60;69.00
78779;DHT22;68121;52.404;5.318;2024-03-02T02:07:10;7.70;69.10
78779;DHT22;68121;52.404;5.318;2024-03-02T02:09:36;7.60;69.10
78779;DHT22;68121;52.404;5.318;2024-03-02T02:12:02;7.60;69.20
78779;DHT22;68121;52.404;5.318;2024-03-02T02:14:30;7.60;69.20
78779;DHT22;68121;52.404;5.318;2024-03-02T02:16:56;7.60;69.30
78779;DHT22;68121;52.404;5.318;2024-03-02T02:19:22;7.60;69.30
78779;DHT22;68121;52.404;5.318;2024-03-02T02:21:48;7.50;69.40
78779;DHT22;68121;52.404;5.318;2024-03-02T02:24:15;7.50;69.40
78779;DHT22;68121;52.404;5.318;2024-03-02T02:26:41;7.50;69.50
78779;DHT22;68121;52.404;5.318;2024-03-02T02:29:07;7.50;69.50
78779;DHT22;68121;52.404;5.318;2024-03-02T02:31:40;7.50;69.60
78779;DHT22;68121;52.404;5.318;2024-03-02T02:34:06;7.50;69.70
78779;DHT22;68121;52.404;5.318;2024-03-02T02:36:38;7.40;69.80
78779;DHT22;68121;52.404;5.318;2024-03-02T02:39:05;7.40;69.80
78779;DHT22;68121;52.404;5.318;2024-03-02T02:41:33;7.40;69.90
78779;DHT22;68121;52.404;5.318;2024-03-02T02:43:59;7.40;69.90
78779;DHT22;68121;52.404;5.318;2024-03-02T02:46:25;7.40;69.90
78779;DHT22;68121;52.404;5.318;2024-03-02T02:48:51;7.40;70.10
78779;DHT22;68121;52.404;5.318;2024-03-02T02:51:19;7.30;70.10
78779;DHT22;68121;52.404;5.318;2024-03-02T02:53:45;7.20;70.20
78779;DHT22;68121;52.404;5.318;2024-03-02T02:56:11;7.20;70.30
78779;DHT22;68121;52.404;5.318;2024-03-02T02:58:37;7.20;70.30
78779;DHT22;68121;52.404;5.318;2024-03-02T03:01:03;7.20;70.30
78779;DHT22;68121;52.404;5.318;2024-03-02T03:03:29;7.20;70.40
78779;DHT22;68121;52.404;5.318;2024-03-02T03:05:55;7.20;70.40
78779;DHT22;68121;52.404;5.318;2024-03-02T03:08:21;7.20;70.50
78779;DHT22;68121;52.404;5.318;2024-03-02T03:10:49;7.10;70.60
78779;DHT22;68121;52.404;5.318;2024-03-02T03:13:15;7.10;70.60
78779;DHT22;68121;52.404;5.318;2024-03-02T03:15:41;7.00;70.70
78779;DHT22;68121;52.404;5.318;2024-03-02T03:18:07;7.00;70.70
78779;DHT22;68121;52.404;5.318;2024-03-02T03:20:33;7.00;70.70
78779;DHT22;68121;52.404;5.318;2024-03-02T03:23:00;7.00;70.70
78779;DHT22;68121;52.404;5.318;2024-03-02T03:25:26;7.00;70.80
78779;DHT22;68121;52.404;5.318;2024-03-02T03:27:52;7.00;70.80
78779;DHT22;68121;52.404;5.318;2024-03-02T03:30:20;7.00;70.90
78779;DHT22;68121;52.404;5.318;2024-03-02T03:32:46;7.00;70.90
78779;DHT22;68121;52.404;5.318;2024-03-02T03:35:14;7.00;71.00
78779;DHT22;68121;52.404;5.318;2024-03-02T03:37:41;7.00;71.00
78779;DHT22;68121;52.404;5.318;2024-03-02T03:40:08;7.00;71.10
78779;DHT22;68121;52.404;5.318;2024-03-02T03:42:37;6.90;71.10
78779;DHT22;68121;52.404;5.318;2024-03-02T03:45:05;6.90;71.10
78779;DHT22;68121;52.404;5.318;2024-03-02T03:47:32;6.90;71.20
78779;DHT22;68121;52.404;5.318;2024-03-02T03:49:58;6.90;71.20
78779;DHT22;68121;52.404;5.318;2024-03-02T03:52:24;6.90;71.20
78779;DHT22;68121;52.404;5.318;2024-03-02T03:54:50;6.90;71.30
78779;DHT22;68121;52.404;5.318;2024-03-02T03:57:17;6.80;71.30
78779;DHT22;68121;52.404;5.318;2024-03-02T03:59:43;6.80;71.40
78779;DHT22;68121;52.404;5.318;2024-03-02T04:02:10;6.80;71.40
78779;DHT22;68121;52.404;5.318;2024-03-02T04:04:38;6.80;71.40
78779;DHT22;68121;52.404;5.318;2024-03-02T04:07:04;6.80;71.40
78779;DHT22;68121;52.404;5.318;2024-03-02T04:09:30;6.70;71.40
78779;DHT22;68121;52.404;5.318;2024-03-02T04:11:56;6.70;71.40
78779;DHT22;68121;52.404;5.318;2024-03-02T04:14:22;6.80;71.40
78779;DHT22;68121;52.404;5.318;2024-03-02T04:16:48;6.70;71.40
78779;DHT22;68121;52.404;5.318;2024-03-02T04:19:14;6.70;71.30
78779;DHT22;68121;52.404;5.318;2024-03-02T04:21:40;6.70;71.30
78779;DHT22;68121;52.404;5.318;2024-03-02T04:24:06;6.70;71.30
78779;DHT22;68121;52.404;5.318;2024-03-02T04:26:32;6.70;71.30
78779;DHT22;68121;52.404;5.318;2024-03-02T04:28:58;6.80;71.30
78779;DHT22;68121;52.404;5.318;2024-03-02T04:31:24;6.80;71.20
78779;DHT22;68121;52.404;5.318;2024-03-02T04:33:50;6.80;71.20
78779;DHT22;68121;52.404;5.318;2024-03-02T04:36:16;6.80;71.20
78779;DHT22;68121;52.404;5.318;2024-03-02T04:38:42;6.80;71.10
78779;DHT22;68121;52.404;5.318;2024-03-02T04:41:08;6.90;71.10
78779;DHT22;68121;52.404;5.318;2024-03-02T04:43:35;6.90;71.10
78779;DHT22;68121;52.404;5.318;2024-03-02T04:46:01;6.90;71.10
78779;DHT22;68121;52.404;5.318;2024-03-02T04:48:27;6.90;70.90
78779;DHT22;68121;52.404;5.318;2024-03-02T04:50:53;6.90;71.00
78779;DHT22;68121;52.404;5.318;2024-03-02T04:53:19;7.00;70.90
78779;DHT22;68121;52.404;5.318;2024-03-02T04:55:45;7.00;70.80
78779;DHT22;68121;52.404;5.318;2024-03-02T04:58:31;7.00;70.80
78779;DHT22;68121;52.404;5.318;2024-03-02T05:00:57;7.00;70.80
78779;DHT22;68121;52.404;5.318;2024-03-02T05:03:23;7.00;70.80
78779;DHT22;68121;52.404;5.318;2024-03-02T05:05:50;7.00;70.70
78779;DHT22;68121;52.404;5.318;2024-03-02T05:08:16;7.00;70.80
78779;DHT22;68121;52.404;5.318;2024-03-02T05:10:42;7.00;70.80
78779;DHT22;68121;52.404;5.318;2024-03-02T05:13:08;6.90;70.90
78779;DHT22;68121;52.404;5.318;2024-03-02T05:15:35;6.90;70.90
78779;DHT22;68121;52.404;5.318;2024-03-02T05:18:01;6.90;70.90
78779;DHT22;68121;52.404;5.318;2024-03-02T05:20:30;6.90;70.90
78779;DHT22;68121;52.404;5.318;2024-03-02T05:22:57;6.90;71.00
78779;DHT22;68121;52.404;5.318;2024-03-02T05:25:23;6.90;71.00
78779;DHT22;68121;52.404;5.318;2024-03-02T05:27:49;6.90;71.00
78779;DHT22;68121;52.404;5.318;2024-03-02T05:30:15;6.90;71.00
78779;DHT22;68121;52.404;5.318;2024-03-02T05:32:41;6.90;71.00
78779;DHT22;68121;52.404;5.318;2024-03-02T05:35:07;6.80;71.00
78779;DHT22;68121;52.404;5.318;2024-03-02T05:37:34;6.80;71.10
78779;DHT22;68121;52.404;5.318;2024-03-02T05:40:00;6.80;71.10
78779;DHT22;68121;52.404;5.318;2024-03-02T05:42:26;6.80;71.00
78779;DHT22;68121;52.404;5.318;2024-03-02T05:44:52;6.80;71.10
78779;DHT22;68121;52.404;5.318;2024-03-02T05:47:19;6.80;71.10
78779;DHT22;68121;52.404;5.318;2024-03-02T05:49:45;6.80;71.00
78779;DHT22;68121;52.404;5.318;2024-03-02T05:52:11;6.70;71.00
78779;DHT22;68121;52.404;5.318;2024-03-02T05:54:38;6.70;71.00
78779;DHT22;68121;52.404;5.318;2024-03-02T05:57:04;6.70;70.90
78779;DHT22;68121;52.404;5.318;2024-03-02T05:59:49;6.70;71.00
78779;DHT22;68121;52.404;5.318;2024-03-02T06:02:15;6.70;70.90
78779;DHT22;68121;52.404;5.318;2024-03-02T06:04:41;6.70;70.90
78779;DHT22;68121;52.404;5.318;2024-03-02T06:07:07;6.60;70.90
78779;DHT22;68121;52.404;5.318;2024-03-02T06:09:33;6.60;70.90
78779;DHT22;68121;52.404;5.318;2024-03-02T06:11:59;6.60;70.90
78779;DHT22;68121;52.404;5.318;2024-03-02T06:14:26;6.60;70.80
78779;DHT22;68121;52.404;5.318;2024-03-02T06:16:52;6.60;70.80
78779;DHT22;68121;52.404;5.318;2024-03-02T06:19:18;6.60;70.70
78779;DHT22;68121;52.404;5.318;2024-03-02T06:21:44;6.60;70.70
78779;DHT22;68121;52.404;5.318;2024-03-02T06:24:10;6.50;70.70
78779;DHT22;68121;52.404;5.318;2024-03-02T06:26:36;6.50;70.70
78779;DHT22;68121;52.404;5.318;2024-03-02T06:29:02;6.50;70.70
78779;DHT22;68121;52.404;5.318;2024-03-02T06:31:29;6.40;70.70
78779;DHT22;68121;52.404;5.318;2024-03-02T06:33:55;6.40;70.70
78779;DHT22;68121;52.404;5.318;2024-03-02T06:36:21;6.40;70.60
78779;DHT22;68121;52.404;5.318;2024-03-02T06:38:49;6.40;70.70
78779;DHT22;68121;52.404;5.318;2024-03-02T06:41:15;6.40;70.70
78779;DHT22;68121;52.404;5.318;2024-03-02T06:43:41;6.40;70.50
78779;DHT22;68121;52.404;5.318;2024-03-02T06:46:07;6.40;70.50
78779;DHT22;68121;52.404;5.318;2024-03-02T06:48:35;6.50;70.50
78779;DHT22;68121;52.404;5.318;2024-03-02T06:51:01;6.50;70.50
78779;DHT22;68121;52.404;5.318;2024-03-02T06:53:27;6.50;70.40
78779;DHT22;68121;52.404;5.318;2024-03-02T06:55:54;6.60;70.30
78779;DHT22;68121;52.404;5.318;2024-03-02T06:58:20;6.60;70.30
78779;DHT22;68121;52.404;5.318;2024-03-02T07:00:46;6.70;70.10
78779;DHT22;68121;52.404;5.318;2024-03-02T07:03:13;6.80;69.90
78779;DHT22;68121;52.404;5.318;2024-03-02T07:05:39;6.80;70.00
78779;DHT22;68121;52.404;5.318;2024-03-02T07:08:06;6.80;69.90
78779;DHT22;68121;52.404;5.318;2024-03-02T07:10:32;6.80;69.90
78779;DHT22;68121;52.404;5.318;2024-03-02T07:12:58;6.80;69.90
78779;DHT22;68121;52.404;5.318;2024-03-02T07:15:24;6.90;70.00
78779;DHT22;68121;52.404;5.318;2024-03-02T07:17:53;7.00;69.90
78779;DHT22;68121;52.404;5.318;2024-03-02T07:20:19;7.10;69.80
78779;DHT22;68121;52.404;5.318;2024-03-02T07:22:45;7.20;69.60
78779;DHT22;68121;52.404;5.318;2024-03-02T07:25:11;7.40;69.40
78779;DHT22;68121;52.404;5.318;2024-03-02T07:27:41;7.50;69.20
78779;DHT22;68121;52.404;5.318;2024-03-02T07:30:07;7.60;69.00
78779;DHT22;68121;52.404;5.318;2024-03-02T07:32:33;7.80;68.90
78779;DHT22;68121;52.404;5.318;2024-03-02T07:34:59;7.90;68.70
78779;DHT22;68121;52.404;5.318;2024-03-02T07:37:27;8.00;68.60
78779;DHT22;68121;52.404;5.318;2024-03-02T07:39:53;8.10;68.40
78779;DHT22;68121;52.404;5.318;2024-03-02T07:42:19;8.20;68.10
78779;DHT22;68121;52.404;5.318;2024-03-02T07:44:45;8.30;68.00
78779;DHT22;68121;52.404;5.318;2024-03-02T07:47:11;8.40;67.80
78779;DHT22;68121;52.404;5.318;2024-03-02T07:49:38;8.60;67.70
78779;DHT22;68121;52.404;5.318;2024-03-02T07:52:04;8.60;67.50
78779;DHT22;68121;52.404;5.318;2024-03-02T07:54:30;8.70;67.20
78779;DHT22;68121;52.404;5.318;2024-03-02T07:56:56;8.80;66.90
78779;DHT22;68121;52.404;5.318;2024-03-02T07:59:22;8.80;66.90
78779;DHT22;68121;52.404;5.318;2024-03-02T08:01:49;8.80;66.80
78779;DHT22;68121;52.404;5.318;2024-03-02T08:04:15;8.90;66.80
78779;DHT22;68121;52.404;5.318;2024-03-02T08:06:41;8.80;66.60
78779;DHT22;68121;52.404;5.318;2024-03-02T08:09:07;8.70;66.60
78779;DHT22;68121;52.404;5.318;2024-03-02T08:11:36;8.70;66.70
78779;DHT22;68121;52.404;5.318;2024-03-02T08:14:03;8.60;66.70
78779;DHT22;68121;52.404;5.318;2024-03-02T08:16:29;8.50;66.80
78779;DHT22;68121;52.404;5.318;2024-03-02T08:18:56;8.50;67.00
78779;DHT22;68121;52.404;5.318;2024-03-02T08:21:25;8.40;67.20
78779;DHT22;68121;52.404;5.318;2024-03-02T08:23:51;8.40;67.10
78779;DHT22;68121;52.404;5.318;2024-03-02T08:26:17;8.30;67.10
78779;DHT22;68121;52.404;5.318;2024-03-02T08:28:43;8.30;67.20
78779;DHT22;68121;52.404;5.318;2024-03-02T08:31:10;8.30;67.20
78779;DHT22;68121;52.404;5.318;2024-03-02T08:33:36;8.20;67.20
78779;DHT22;68121;52.404;5.318;2024-03-02T08:36:02;8.20;67.10
78779;DHT22;68121;52.404;5.318;2024-03-02T08:38:29;8.30;67.10
78779;DHT22;68121;52.404;5.318;2024-03-02T08:40:55;8.30;67.00
78779;DHT22;68121;52.404;5.318;2024-03-02T08:43:21;8.40;66.90
78779;DHT22;68121;52.404;5.318;2024-03-02T08:45:48;8.50;66.80
78779;DHT22;68121;52.404;5.318;2024-03-02T08:48:15;8.50;66.60
78779;DHT22;68121;52.404;5.318;2024-03-02T08:50:41;8.60;66.60
78779;DHT22;68121;52.404;5.318;2024-03-02T08:53:07;8.80;66.50
78779;DHT22;68121;52.404;5.318;2024-03-02T08:55:33;9.00;66.20
78779;DHT22;68121;52.404;5.318;2024-03-02T08:57:59;9.20;65.90
78779;DHT22;68121;52.404;5.318;2024-03-02T09:00:25;9.40;65.80
78779;DHT22;68121;52.404;5.318;2024-03-02T09:02:51;9.60;65.50
78779;DHT22;68121;52.404;5.318;2024-03-02T09:05:17;9.80;65.20
78779;DHT22;68121;52.404;5.318;2024-03-02T09:07:44;10.00;65.10
78779;DHT22;68121;52.404;5.318;2024-03-02T09:10:10;10.00;64.80
78779;DHT22;68121;52.404;5.318;2024-03-02T09:12:37;10.10;64.70
78779;DHT22;68121;52.404;5.318;2024-03-02T09:15:04;10.30;64.70
78779;DHT22;68121;52.404;5.318;2024-03-02T09:17:31;10.40;64.50
78779;DHT22;68121;52.404;5.318;2024-03-02T09:19:57;10.50;64.40
78779;DHT22;68121;52.404;5.318;2024-03-02T09:22:23;10.50;64.40
78779;DHT22;68121;52.404;5.318;2024-03-02T09:24:50;10.50;64.30
78779;DHT22;68121;52.404;5.318;2024-03-02T09:27:16;10.60;64.10
78779;DHT22;68121;52.404;5.318;2024-03-02T09:29:42;10.60;64.00
78779;DHT22;68121;52.404;5.318;2024-03-02T09:32:11;10.60;64.10
78779;DHT22;68121;52.404;5.318;2024-03-02T09:34:37;10.60;64.00
78779;DHT22;68121;52.404;5.318;2024-03-02T09:37:04;10.60;63.80
78779;DHT22;68121;52.404;5.318;2024-03-02T09:39:30;10.70;63.70
78779;DHT22;68121;52.404;5.318;2024-03-02T09:42:00;10.80;63.60
78779;DHT22;68121;52.404;5.318;2024-03-02T09:44:26;10.80;63.20
78779;DHT22;68121;52.404;5.318;2024-03-02T09:46:52;10.80;62.90
78779;DHT22;68121;52.404;5.318;2024-03-02T09:49:18;10.80;62.50
78779;DHT22;68121;52.404;5.318;2024-03-02T09:51:48;10.80;62.50
78779;DHT22;68121;52.404;5.318;2024-03-02T09:54:17;10.90;62.50
78779;DHT22;68121;52.404;5.318;2024-03-02T09:56:46;10.90;62.40
78779;DHT22;68121;52.404;5.318;2024-03-02T09:59:12;11.00;62.20
78779;DHT22;68121;52.404;5.318;2024-03-02T10:01:56;11.00;61.90
78779;DHT22;68121;52.404;5.318;2024-03-02T10:04:28;11.00;61.80
78779;DHT22;68121;52.404;5.318;2024-03-02T10:07:11;11.10;62.00
78779;DHT22;68121;52.404;5.318;2024-03-02T10:09:37;11.30;61.80
78779;DHT22;68121;52.404;5.318;2024-03-02T10:12:11;11.30;61.50
78779;DHT22;68121;52.404;5.318;2024-03-02T10:14:38;11.40;61.50
78779;DHT22;68121;52.404;5.318;2024-03-02T10:17:09;11.40;61.10
78779;DHT22;68121;52.404;5.318;2024-03-02T10:19:36;11.50;60.90
78779;DHT22;68121;52.404;5.318;2024-03-02T10:22:08;11.50;60.90
78779;DHT22;68121;52.404;5.318;2024-03-02T10:24:44;11.50;60.50
78779;DHT22;68121;52.404;5.318;2024-03-02T10:27:27;11.50;60.00
78779;DHT22;68121;52.404;5.318;2024-03-02T10:29:54;11.60;60.00
78779;DHT22;68121;52.404;5.318;2024-03-02T10:32:22;11.70;60.10
78779;DHT22;68121;52.404;5.318;2024-03-02T10:34:50;11.70;59.90
78779;DHT22;68121;52.404;5.318;2024-03-02T10:37:16;11.80;59.60
78779;DHT22;68121;52.404;5.318;2024-03-02T10:39:46;11.90;59.70
78779;DHT22;68121;52.404;5.318;2024-03-02T10:42:12;12.00;59.50
78779;DHT22;68121;52.404;5.318;2024-03-02T10:44:40;12.10;59.50
78779;DHT22;68121;52.404;5.318;2024-03-02T10:47:09;12.20;59.00
78779;DHT22;68121;52.404;5.318;2024-03-02T10:49:38;12.20;59.00
78779;DHT22;68121;52.404;5.318;2024-03-02T10:52:07;12.30;58.70
78779;DHT22;68121;52.404;5.318;2024-03-02T10:54:35;12.30;58.60
78779;DHT22;68121;52.404;5.318;2024-03-02T10:57:07;12.50;58.30
78779;DHT22;68121;52.404;5.318;2024-03-02T10:59:36;12.50;58.30
78779;DHT22;68121;52.404;5.318;2024-03-02T11:02:06;12.50;58.20
78779;DHT22;68121;52.404;5.318;2024-03-02T11:04:34;12.50;57.60
78779;DHT22;68121;52.404;5.318;2024-03-02T11:07:05;12.50;56.80
78779;DHT22;68121;52.404;5.318;2024-03-02T11:09:34;12.50;57.20
78779;DHT22;68121;52.404;5.318;2024-03-02T11:12:15;12.50;57.20
78779;DHT22;68121;52.404;5.318;2024-03-02T11:14:45;12.70;57.30
78779;DHT22;68121;52.404;5.318;2024-03-02T11:17:13;12.80;56.90
78779;DHT22;68121;52.404;5.318;2024-03-02T11:19:41;12.90;56.40
78779;DHT22;68121;52.404;5.318;2024-03-02T11:22:09;12.80;56.50
78779;DHT22;68121;52.404;5.318;2024-03-02T11:24:35;12.90;56.80
78779;DHT22;68121;52.404;5.318;2024-03-02T11:27:10;12.90;56.10
78779;DHT22;68121;52.404;5.318;2024-03-02T11:32:20;13.00;56.30
78779;DHT22;68121;52.404;5.318;2024-03-02T11:34:48;13.10;56.30
78779;DHT22;68121;52.404;5.318;2024-03-02T11:37:19;13.10;56.00
78779;DHT22;68121;52.404;5.318;2024-03-02T11:39:51;13.10;56.10
78779;DHT22;68121;52.404;5.318;2024-03-02T11:42:17;13.10;55.90
78779;DHT22;68121;52.404;5.318;2024-03-02T11:44:47;13.20;55.90
78779;DHT22;68121;52.404;5.318;2024-03-02T11:47:15;13.10;55.90
78779;DHT22;68121;52.404;5.318;2024-03-02T11:49:49;13.10;55.90
78779;DHT22;68121;52.404;5.318;2024-03-02T11:52:16;13.10;55.70
78779;DHT22;68121;52.404;5.318;2024-03-02T11:54:45;13.10;55.50
78779;DHT22;68121;52.404;5.318;2024-03-02T11:57:18;13.30;55.60
78779;DHT22;68121;52.404;5.318;2024-03-02T11:59:53;13.40;55.60
78779;DHT22;68121;52.404;5.318;2024-03-02T12:02:20;13.50;55.50
78779;DHT22;68121;52.404;5.318;2024-03-02T12:04:49;13.50;55.20
78779;DHT22;68121;52.404;5.318;2024-03-02T12:07:24;13.50;55.00
78779;DHT22;68121;52.404;5.318;2024-03-02T12:10:02;13.50;55.00
78779;DHT22;68121;52.404;5.318;2024-03-02T12:12:29;13.50;55.00
78779;DHT22;68121;52.404;5.318;2024-03-02T12:14:55;13.60;54.80
78779;DHT22;68121;52.404;5.318;2024-03-02T12:17:22;13.60;54.40
78779;DHT22;68121;52.404;5.318;2024-03-02T12:19:48;13.60;54.60
78779;DHT22;68121;52.404;5.318;2024-03-02T12:22:14;13.70;54.60
78779;DHT22;68121;52.404;5.318;2024-03-02T12:24:41;13.70;54.70
78779;DHT22;68121;52.404;5.318;2024-03-02T12:27:12;13.80;54.40
78779;DHT22;68121;52.404;5.318;2024-03-02T12:29:38;13.80;54.30
78779;DHT22;68121;52.404;5.318;2024-03-02T12:32:05;13.90;54.10
78779;DHT22;68121;52.404;5.318;2024-03-02T12:34:32;13.90;54.00
78779;DHT22;68121;52.404;5.318;2024-03-02T12:36:58;13.90;53.90
78779;DHT22;68121;52.404;5.318;2024-03-02T12:39:24;14.00;53.90
78779;DHT22;68121;52.404;5.318;2024-03-02T12:41:52;14.10;53.10
78779;DHT22;68121;52.404;5.318;2024-03-02T12:44:20;14.10;53.10
78779;DHT22;68121;52.404;5.318;2024-03-02T12:46:48;14.10;52.90
78779;DHT22;68121;52.404;5.318;2024-03-02T12:49:15;14.20;52.80
78779;DHT22;68121;52.404;5.318;2024-03-02T12:51:46;14.20;52.80
78779;DHT22;68121;52.404;5.318;2024-03-02T12:54:17;14.10;52.90
78779;DHT22;68121;52.404;5.318;2024-03-02T12:56:44;14.10;52.90
78779;DHT22;68121;52.404;5.318;2024-03-02T12:59:18;14.10;52.90
78779;DHT22;68121;52.404;5.318;2024-03-02T13:01:53;14.00;52.70
78779;DHT22;68121;52.404;5.318;2024-03-02T13:04:26;14.00;52.80
78779;DHT22;68121;52.404;5.318;2024-03-02T13:06:55;14.00;52.80
78779;DHT22;68121;52.404;5.318;2024-03-02T13:09:23;14.00;53.00
78779;DHT22;68121;52.404;5.318;2024-03-02T13:11:50;14.00;53.10
78779;DHT22;68121;52.404;5.318;2024-03-02T13:14:16;14.10;53.10
78779;DHT22;68121;52.404;5.318;2024-03-02T13:16:44;14.10;53.10
78779;DHT22;68121;52.404;5.318;2024-03-02T13:19:13;14.10;53.10
78779;DHT22;68121;52.404;5.318;2024-03-02T13:21:39;14.20;53.20
78779;DHT22;68121;52.404;5.318;2024-03-02T13:24:05;14.30;53.10
78779;DHT22;68121;52.404;5.318;2024-03-02T13:26:31;14.30;53.20
78779;DHT22;68121;52.404;5.318;2024-03-02T13:28:57;14.40;53.10
78779;DHT22;68121;52.404;5.318;2024-03-02T13:31:23;14.40;53.00
78779;DHT22;68121;52.404;5.318;2024-03-02T13:33:49;14.40;53.00
78779;DHT22;68121;52.404;5.318;2024-03-02T13:36:16;14.40;53.00
78779;DHT22;68121;52.404;5.318;2024-03-02T13:38:43;14.30;52.80
78779;DHT22;68121;52.404;5.318;2024-03-02T13:41:09;14.30;52.70
78779;DHT22;68121;52.404;5.318;2024-03-02T13:43:36;14.30;52.80
78779;DHT22;68121;52.404;5.318;2024-03-02T13:46:04;14.20;52.60
78779;DHT22;68121;52.404;5.318;2024-03-02T13:48:30;14.20;52.50
78779;DHT22;68121;52.404;5.318;2024-03-02T13:50:56;14.10;52.50
78779;DHT22;68121;52.404;5.318;2024-03-02T13:53:23;14.10;52.50
78779;DHT22;68121;52.404;5.318;2024-03-02T13:55:49;14.00;52.60
78779;DHT22;68121;52.404;5.318;2024-03-02T13:58:15;13.90;52.50
78779;DHT22;68121;52.404;5.318;2024-03-02T14:00:42;13.90;52.60
78779;DHT22;68121;52.404;5.318;2024-03-02T14:03:09;14.00;52.70
78779;DHT22;68121;52.404;5.318;2024-03-02T14:05:35;14.00;52.90
78779;DHT22;68121;52.404;5.318;2024-03-02T14:08:02;14.00;52.90
78779;DHT22;68121;52.404;5.318;2024-03-02T14:10:30;13.90;53.00
78779;DHT22;68121;52.404;5.318;2024-03-02T14:12:56;13.80;53.20
78779;DHT22;68121;52.404;5.318;2024-03-02T14:15:22;13.80;53.50
78779;DHT22;68121;52.404;5.318;2024-03-02T14:17:50;13.90;53.40
78779;DHT22;68121;52.404;5.318;2024-03-02T14:20:16;13.90;53.40
78779;DHT22;68121;52.404;5.318;2024-03-02T14:22:48;13.90;53.50
78779;DHT22;68121;52.404;5.318;2024-03-02T14:25:14;13.90;53.60
78779;DHT22;68121;52.404;5.318;2024-03-02T14:27:40;14.00;53.50
78779;DHT22;68121;52.404;5.318;2024-03-02T14:30:07;13.90;53.40
78779;DHT22;68121;52.404;5.318;2024-03-02T14:32:33;13.90;53.40
78779;DHT22;68121;52.404;5.318;2024-03-02T14:34:59;13.70;53.30
78779;DHT22;68121;52.404;5.318;2024-03-02T14:37:25;13.60;53.50
78779;DHT22;68121;52.404;5.318;2024-03-02T14:39:51;13.50;53.50
78779;DHT22;68121;52.404;5.318;2024-03-02T14:42:17;13.40;53.60
78779;DHT22;68121;52.404;5.318;2024-03-02T14:44:43;13.30;53.80
78779;DHT22;68121;52.404;5.318;2024-03-02T14:47:09;13.30;53.90
78779;DHT22;68121;52.404;5.318;2024-03-02T14:49:38;13.20;54.00
78779;DHT22;68121;52.404;5.318;2024-03-02T14:52:06;13.10;54.00
78779;DHT22;68121;52.404;5.318;2024-03-02T14:54:33;13.10;54.10
78779;DHT22;68121;52.404;5.318;2024-03-02T14:57:01;13.00;54.30
78779;DHT22;68121;52.404;5.318;2024-03-02T14:59:28;13.10;54.50
78779;DHT22;68121;52.404;5.318;2024-03-02T15:01:55;13.10;54.30
78779;DHT22;68121;52.404;5.318;2024-03-02T15:04:21;13.10;54.20
78779;DHT22;68121;52.404;5.318;2024-03-02T15:06:48;13.10;54.20
78779;DHT22;68121;52.404;5.318;2024-03-02T15:09:14;13.10;54.20
78779;DHT22;68121;52.404;5.318;2024-03-02T15:11:40;13.10;54.20
78779;DHT22;68121;52.404;5.318;2024-03-02T15:14:06;13.10;54.20
78779;DHT22;68121;52.404;5.318;2024-03-02T15:16:32;13.20;54.10
78779;DHT22;68121;52.404;5.318;2024-03-02T15:18:58;13.20;54.10
78779;DHT22;68121;52.404;5.318;2024-03-02T15:21:24;13.20;54.10
78779;DHT22;68121;52.404;5.318;2024-03-02T15:23:50;13.10;54.20
78779;DHT22;68121;52.404;5.318;2024-03-02T15:26:16;13.10;54.20
78779;DHT22;68121;52.404;5.318;2024-03-02T15:28:42;13.10;54.40
78779;DHT22;68121;52.404;5.318;2024-03-02T15:31:08;13.10;54.50
78779;DHT22;68121;52.404;5.318;2024-03-02T15:33:34;13.10;54.60
78779;DHT22;68121;52.404;5.318;2024-03-02T15:36:01;13.10;54.80
78779;DHT22;68121;52.404;5.318;2024-03-02T15:38:27;13.10;54.70
78779;DHT22;68121;52.404;5.318;2024-03-02T15:40:53;13.00;54.80
78779;DHT22;68121;52.404;5.318;2024-03-02T15:43:19;13.00;54.70
78779;DHT22;68121;52.404;5.318;2024-03-02T15:45:45;13.00;54.80